Time;durP1;ratioP1;P1;durP2;ratioP2;P2;SDS_P1;SDS_P2;PMS_P1;PMS_P2;Temp;Humidity;BMP_temperature;BMP_pressure;BME280_temperature;BME280_humidity;BME280_pressure;Samples;Min_cycle;Max_cycle;Signal;HPM_P1;HPM_P2
2023/06/20 05:25:13;;;;;;;;;;;;;;;24.41;61.49;96709.88;4239522;27;10400;-64
2023/06/20 05:27:16;;;;;;;;;;;;;;;24.71;61.24;96716.91;4230575;27;5758;-64
2023/06/20 05:29:19;;;;;;;;;;;;;;;24.92;60.71;96725.63;4229380;28;5736;-65
2023/06/20 05:31:24;;;;;;;;;;;;;;;25.14;60.41;96722.41;4228310;27;5617;-64
2023/06/20 05:33:27;;;;;;;;;;;;;;;25.34;59.92;96719.47;4224883;28;5763;-64
2023/06/20 05:35:30;;;;;;;;;;;;;;;25.50;60.14;96714.69;4227862;28;5627;-64
2023/06/20 05:37:33;;;;;;;;;;;;;;;25.62;59.58;96716.97;4222191;28;5621;-64
2023/06/20 05:39:36;;;;;;;;;;;;;;;25.71;59.35;96718.78;4226470;27;5747;-64
2023/06/20 05:41:41;;;;;;;;;;;;;;;25.78;59.29;96716.50;4230210;28;5608;-64
2023/06/20 05:43:44;;;;;;;;;;;;;;;25.87;59.27;96713.13;4229180;28;6659;-64
2023/06/20 05:45:48;;;;;;;;;;;;;;;25.95;59.13;96710.56;4222795;28;5691;-65
2023/06/20 05:47:51;;;;;;;;;;;;;;;26.03;58.49;96718.00;4219927;28;5675;-64
2023/06/20 05:49:57;;;;;;;;;;;;;;;26.10;58.65;96706.81;4224300;28;5631;-64
2023/06/20 05:52:00;;;;;;;;;;;;;;;26.16;58.49;96710.25;4228605;27;5644;-64
2023/06/20 05:54:03;;;;;;;;;;;;;;;26.21;58.42;96708.28;4225273;28;5621;-64
2023/06/20 05:56:06;;;;;;;;;;;;;;;26.28;58.21;96711.41;4227061;28;5648;-64
2023/06/20 05:58:10;;;;;;;;;;;;;;;26.33;58.20;96710.53;4221083;28;5817;-65
2023/06/20 06:00:15;;;;;;;;;;;;;;;26.36;57.87;96709.91;4218294;28;5866;-64
2023/06/20 06:02:20;;;;;;;;;;;;;;;26.39;58.08;96704.75;4227496;28;5604;-64
2023/06/20 06:04:23;;;;;;;;;;;;;;;26.42;58.02;96697.94;4228106;27;5746;-64
2023/06/20 06:06:26;;;;;;;;;;;;;;;26.45;57.74;96697.34;4226765;28;6414;-65
2023/06/20 06:08:29;;;;;;;;;;;;;;;26.49;57.84;96705.66;4229457;28;5770;-65
2023/06/20 06:10:32;;;;;;;;;;;;;;;26.52;57.76;96696.97;4228146;28;7303;-65
2023/06/20 06:12:35;;;;;;;;;;;;;;;26.53;57.61;96696.66;4225279;27;5948;-67
2023/06/20 06:14:40;;;;;;;;;;;;;;;26.56;57.44;96695.25;4222941;27;5886;-67
2023/06/20 06:16:44;;;;;;;;;;;;;;;26.55;57.20;96689.03;4224406;28;5632;-67
2023/06/20 06:18:47;;;;;;;;;;;;;;;26.55;57.34;96686.31;4228039;28;5667;-66
2023/06/20 06:20:51;;;;;;;;;;;;;;;26.56;57.12;96692.53;4229510;27;5695;-66
2023/06/20 06:22:54;;;;;;;;;;;;;;;26.61;57.00;96695.97;4229015;28;5714;-66
2023/06/20 06:24:57;;;;;;;;;;;;;;;26.65;56.72;96691.56;4218022;27;5789;-66
2023/06/20 06:27:00;;;;;;;;;;;;;;;26.66;56.60;96698.59;4217775;28;5952;-66
2023/06/20 06:29:04;;;;;;;;;;;;;;;26.68;56.64;96703.72;4215981;28;5100;-66
2023/06/20 06:31:11;;;;;;;;;;;;;;;26.70;56.50;96702.31;4216461;28;5752;-67
2023/06/20 06:33:14;;;;;;;;;;;;;;;26.73;56.40;96698.22;4217791;28;5683;-66
2023/06/20 06:35:18;;;;;;;;;;;;;;;26.75;56.34;96692.50;4215510;28;5675;-66
2023/06/20 06:37:25;;;;;;;;;;;;;;;26.77;56.25;96690.28;4218142;28;6592;-66
2023/06/20 06:39:28;;;;;;;;;;;;;;;26.80;56.04;96689.69;4223887;28;5784;-67
2023/06/20 06:41:31;;;;;;;;;;;;;;;26.85;55.77;96695.81;4217326;28;5769;-67
2023/06/20 06:43:35;;;;;;;;;;;;;;;26.89;55.67;96694.09;4217233;28;6383;-66
2023/06/20 06:45:38;;;;;;;;;;;;;;;26.94;55.44;96691.28;4214655;28;5825;-66
2023/06/20 06:47:43;;;;;;;;;;;;;;;26.98;55.54;96694.22;4217700;28;6450;-66
2023/06/20 06:49:46;;;;;;;;;;;;;;;27.02;55.40;96689.81;4217381;28;5703;-66
2023/06/20 06:51:50;;;;;;;;;;;;;;;27.02;55.35;96687.13;4217594;28;5691;-66
2023/06/20 06:53:53;;;;;;;;;;;;;;;27.05;55.66;96683.78;4217121;28;5611;-66
2023/06/20 06:55:56;;;;;;;;;;;;;;;27.10;55.33;96685.63;4197938;28;6658;-66
2023/06/20 06:57:59;;;;;;;;;;;;;;;27.13;55.01;96685.00;4216916;28;5620;-67
2023/06/20 07:00:09;;;;;;;;;;;;;;;27.15;54.96;96685.50;4217582;28;5633;-66
2023/06/20 07:02:13;;;;;;;;;;;;;;;27.17;55.11;96688.72;4218584;28;5611;-66
2023/06/20 07:04:18;;;;;;;;;;;;;;;27.18;54.86;96688.44;4218062;28;5733;-66
2023/06/20 07:06:21;;;;;;;;;;;;;;;27.18;54.92;96687.59;4218635;28;7234;-66
2023/06/20 07:08:24;;;;;;;;;;;;;;;27.17;54.83;96686.00;4217933;28;5611;-66
2023/06/20 07:10:27;;;;;;;;;;;;;;;27.16;54.60;96690.63;4214126;28;5652;-66
2023/06/20 07:12:31;;;;;;;;;;;;;;;27.14;54.56;96681.97;4218470;28;5907;-66
2023/06/20 07:14:34;;;;;;;;;;;;;;;27.14;54.65;96684.69;4216180;28;5782;-66
2023/06/20 07:16:37;;;;;;;;;;;;;;;27.12;54.67;96670.63;4217109;28;6360;-66
2023/06/20 07:18:48;;;;;;;;;;;;;;;27.07;54.79;96665.31;4217970;28;5675;-66
2023/06/20 07:20:53;;;;;;;;;;;;;;;27.05;54.71;96669.41;4218466;28;5789;-66
2023/06/20 07:22:56;;;;;;;;;;;;;;;27.02;54.54;96662.69;4218068;28;6555;-66
2023/06/20 07:24:59;;;;;;;;;;;;;;;26.98;54.63;96672.53;4216844;28;7750;-68
2023/06/20 07:27:02;;;;;;;;;;;;;;;26.95;54.65;96662.25;4216911;28;5715;-66
2023/06/20 07:29:04;;;;;;;;;;;;;;;26.91;54.72;96666.69;4216580;28;5643;-65
2023/06/20 07:31:07;;;;;;;;;;;;;;;26.88;54.61;96678.13;4213249;28;5609;-65
2023/06/20 07:33:10;;;;;;;;;;;;;;;26.89;54.62;96685.16;4214859;28;5608;-66
2023/06/20 07:35:13;;;;;;;;;;;;;;;26.87;54.55;96677.34;4217868;28;5716;-65
2023/06/20 07:37:18;;;;;;;;;;;;;;;26.84;54.70;96682.53;4216785;28;7110;-66
2023/06/20 07:39:21;;;;;;;;;;;;;;;26.82;54.78;96677.41;4218117;28;5628;-66
2023/06/20 07:41:23;;;;;;;;;;;;;;;26.78;54.71;96676.41;4217395;28;5608;-66
2023/06/20 07:43:27;;;;;;;;;;;;;;;26.75;54.88;96678.94;4217663;28;5620;-66
2023/06/20 07:45:30;;;;;;;;;;;;;;;26.73;54.67;96678.41;4216206;28;5612;-66
2023/06/20 07:47:33;;;;;;;;;;;;;;;26.70;54.89;96677.09;4218123;28;5616;-66
2023/06/20 07:49:36;;;;;;;;;;;;;;;26.69;54.66;96676.31;4214181;28;5839;-65
2023/06/20 07:51:43;;;;;;;;;;;;;;;26.72;54.74;96665.94;4212617;28;5901;-66
2023/06/20 07:53:47;;;;;;;;;;;;;;;26.71;54.60;96670.56;4218126;28;5612;-66
2023/06/20 07:55:50;;;;;;;;;;;;;;;26.72;54.80;96669.47;4216763;28;5671;-66
2023/06/20 07:57:55;;;;;;;;;;;;;;;26.75;54.74;96673.50;4218131;28;5635;-65
2023/06/20 07:59:58;;;;;;;;;;;;;;;26.69;54.69;96670.06;4216759;28;5612;-66
2023/06/20 08:02:01;;;;;;;;;;;;;;;26.65;54.90;96664.44;4218051;28;5850;-65
2023/06/20 08:04:05;;;;;;;;;;;;;;;26.67;54.88;96667.66;4216187;28;5748;-66
2023/06/20 08:06:10;;;;;;;;;;;;;;;26.72;54.77;96663.25;4216072;28;5703;-66
2023/06/20 08:08:13;;;;;;;;;;;;;;;26.77;54.70;96665.88;4217100;28;5619;-66
2023/06/20 08:10:18;;;;;;;;;;;;;;;26.80;54.52;96665.28;4216965;28;5609;-66
2023/06/20 08:12:21;;;;;;;;;;;;;;;26.80;54.63;96666.06;4192076;28;5864;-66
2023/06/20 08:14:24;;;;;;;;;;;;;;;26.82;54.42;96665.75;4214845;28;5703;-66
2023/06/20 08:16:27;;;;;;;;;;;;;;;26.83;54.22;96664.66;4216916;28;5608;-66
2023/06/20 08:18:30;;;;;;;;;;;;;;;26.84;54.42;96661.66;4216854;28;5612;-67
2023/06/20 08:20:33;;;;;;;;;;;;;;;26.86;54.29;96659.47;4216097;28;5939;-66
2023/06/20 08:22:39;;;;;;;;;;;;;;;26.80;54.23;96660.66;4215961;28;5613;-66
2023/06/20 08:24:42;;;;;;;;;;;;;;;26.78;54.29;96659.34;4214558;28;5604;-66
2023/06/20 08:26:47;;;;;;;;;;;;;;;26.79;54.50;96658.25;4217369;28;5631;-66
2023/06/20 08:28:49;;;;;;;;;;;;;;;26.81;54.58;96656.81;4216488;28;7829;-66
2023/06/20 08:30:53;;;;;;;;;;;;;;;26.84;54.28;96667.09;4216067;28;5177;-66
2023/06/20 08:32:56;;;;;;;;;;;;;;;26.85;54.21;96668.69;4217335;28;5644;-66
2023/06/20 08:34:59;;;;;;;;;;;;;;;26.89;54.22;96675.13;4216984;28;5616;-66
2023/06/20 08:37:03;;;;;;;;;;;;;;;26.86;54.11;96664.88;4216354;28;5750;-66
2023/06/20 08:39:18;;;;;;;;;;;;;;;26.87;54.31;96676.53;4215672;28;6500;-66
2023/06/20 08:41:24;;;;;;;;;;;;;;;26.87;54.36;96676.53;4214483;28;5648;-66
2023/06/20 08:43:30;;;;;;;;;;;;;;;26.81;54.25;96675.00;4216671;28;6322;-65
2023/06/20 08:45:33;;;;;;;;;;;;;;;26.80;54.15;96670.69;4216786;28;5604;-66
2023/06/20 08:47:36;;;;;;;;;;;;;;;26.78;54.15;96673.72;4216543;28;5605;-66
2023/06/20 08:49:40;;;;;;;;;;;;;;;26.83;54.15;96670.09;4217229;28;5616;-66
2023/06/20 08:51:47;;;;;;;;;;;;;;;26.87;53.96;96665.69;4215649;28;5709;-66
2023/06/20 08:53:53;;;;;;;;;;;;;;;26.85;54.04;96652.44;4216478;28;5600;-65
2023/06/20 08:55:56;;;;;;;;;;;;;;;26.87;53.99;96650.22;4215125;28;5620;-66
2023/06/20 08:57:59;;;;;;;;;;;;;;;26.85;53.79;96647.00;4214473;28;5707;-65
2023/06/20 09:00:09;;;;;;;;;;;;;;;26.88;54.09;96645.59;4216417;28;5704;-65
2023/06/20 09:02:16;;;;;;;;;;;;;;;26.88;54.02;96651.81;4210929;28;5628;-66
2023/06/20 09:04:19;;;;;;;;;;;;;;;26.91;53.85;96655.84;4216158;28;5096;-66
2023/06/20 09:06:33;;;;;;;;;;;;;;;26.91;53.74;96653.91;4212851;28;5714;-66
2023/06/20 09:08:37;;;;;;;;;;;;;;;26.93;53.72;96661.75;4217166;28;5609;-66
2023/06/20 09:10:40;;;;;;;;;;;;;;;26.98;53.84;96650.81;4209445;28;5608;-66
2023/06/20 09:12:46;;;;;;;;;;;;;;;27.01;53.67;96655.63;4217283;28;5794;-65
2023/06/20 09:14:51;;;;;;;;;;;;;;;27.00;53.67;96654.03;4212503;28;5798;-66
2023/06/20 09:16:56;;;;;;;;;;;;;;;26.99;53.67;96663.28;4216327;28;6424;-66
2023/06/20 09:19:02;;;;;;;;;;;;;;;27.00;53.38;96662.16;4212676;28;5636;-66
2023/06/20 09:21:05;;;;;;;;;;;;;;;26.96;53.54;96670.13;4215887;28;6297;-66
2023/06/20 09:23:10;;;;;;;;;;;;;;;26.92;53.47;96671.81;4216162;28;5612;-70
2023/06/20 09:25:19;;;;;;;;;;;;;;;26.89;53.62;96666.97;4197897;28;5712;-70
2023/06/20 09:27:22;;;;;;;;;;;;;;;26.93;53.47;96667.97;4208298;28;5681;-71
2023/06/20 09:29:25;;;;;;;;;;;;;;;26.95;53.35;96673.91;4201251;28;5793;-71
2023/06/20 09:31:40;;;;;;;;;;;;;;;26.95;53.44;96668.47;4208282;28;5094;-71
2023/06/20 09:33:46;;;;;;;;;;;;;;;26.95;53.46;96667.69;4194566;28;5639;-70
2023/06/20 09:35:50;;;;;;;;;;;;;;;26.94;53.35;96677.72;4205470;28;5682;-69
2023/06/20 09:37:53;;;;;;;;;;;;;;;26.97;53.41;96668.19;4208165;28;6293;-70
2023/06/20 09:40:06;;;;;;;;;;;;;;;27.05;53.36;96672.13;4213680;28;5206;-70
2023/06/20 09:42:13;;;;;;;;;;;;;;;27.12;52.98;96664.41;4208345;28;5680;-71
2023/06/20 09:44:18;;;;;;;;;;;;;;;27.15;53.03;96656.47;4207333;28;5688;-71
2023/06/20 09:46:21;;;;;;;;;;;;;;;27.18;53.01;96650.44;4207979;28;5784;-71
2023/06/20 09:48:26;;;;;;;;;;;;;;;27.16;53.00;96649.91;4200413;28;5122;-70
2023/06/20 09:50:33;;;;;;;;;;;;;;;27.15;52.75;96663.78;4202355;28;5733;-71
2023/06/20 09:52:42;;;;;;;;;;;;;;;27.17;53.08;96656.16;4200201;28;5694;-71
2023/06/20 09:54:51;;;;;;;;;;;;;;;27.17;53.03;96654.25;4207378;28;7733;-71
2023/06/20 09:57:02;;;;;;;;;;;;;;;27.19;52.96;96645.81;4208014;28;5773;-70
2023/06/20 09:59:09;;;;;;;;;;;;;;;27.26;52.81;96652.44;4203466;28;5809;-71
2023/06/20 10:01:15;;;;;;;;;;;;;;;27.28;52.81;96649.41;4204045;28;5907;-71
2023/06/20 10:03:18;;;;;;;;;;;;;;;27.28;52.81;96650.22;4217160;28;5711;-70
2023/06/20 10:05:24;;;;;;;;;;;;;;;27.31;52.71;96653.44;4210576;28;5784;-70
2023/06/20 10:07:30;;;;;;;;;;;;;;;27.33;52.78;96648.50;4204497;28;5841;-71
2023/06/20 10:09:33;;;;;;;;;;;;;;;27.36;52.82;96650.59;4202558;28;5744;-71
2023/06/20 10:11:39;;;;;;;;;;;;;;;27.39;52.57;96650.00;4209862;28;5770;-71
2023/06/20 10:13:42;;;;;;;;;;;;;;;27.38;52.58;96643.75;4218578;28;5783;-70
2023/06/20 10:15:45;;;;;;;;;;;;;;;27.38;52.57;96642.97;4204526;28;5752;-70
2023/06/20 10:17:48;;;;;;;;;;;;;;;27.40;52.70;96638.03;4203404;28;5677;-71
2023/06/20 10:19:52;;;;;;;;;;;;;;;27.41;52.48;96628.78;4204329;28;5761;-70
2023/06/20 10:21:58;;;;;;;;;;;;;;;27.43;52.48;96632.00;4200312;28;5886;-70
2023/06/20 10:24:03;;;;;;;;;;;;;;;27.44;52.59;96630.91;4215724;28;5623;-70
2023/06/20 10:26:08;;;;;;;;;;;;;;;27.45;52.62;96627.06;4220246;28;5620;-71
2023/06/20 10:28:12;;;;;;;;;;;;;;;27.44;52.36;96620.03;4218151;28;5624;-70
2023/06/20 10:30:15;;;;;;;;;;;;;;;27.46;52.61;96623.25;4218902;28;5674;-70
2023/06/20 10:32:18;;;;;;;;;;;;;;;27.47;52.53;96624.84;4218848;28;5600;-71
2023/06/20 10:34:33;;;;;;;;;;;;;;;27.48;52.39;96623.75;4218069;28;5656;-71
2023/06/20 10:36:36;;;;;;;;;;;;;;;27.51;52.49;96625.84;4217696;28;5735;-71
2023/06/20 10:39:09;;;;;;;;;;;;;;;27.50;52.28;96616.88;4217869;28;5692;-71
2023/06/20 10:41:14;;;;;;;;;;;;;;;27.49;52.30;96611.78;4219681;28;5624;-71
2023/06/20 10:43:18;;;;;;;;;;;;;;;27.48;52.47;96613.69;4219211;28;5628;-71
2023/06/20 10:45:23;;;;;;;;;;;;;;;27.47;52.54;96609.38;4200918;28;5735;-71
2023/06/20 10:47:27;;;;;;;;;;;;;;;27.48;52.37;96610.97;4217517;28;5723;-70
2023/06/20 10:49:30;;;;;;;;;;;;;;;27.50;52.45;96607.94;4218890;28;5601;-71
2023/06/20 10:51:43;;;;;;;;;;;;;;;27.50;52.27;96607.94;4218227;28;5869;-71
2023/06/20 10:53:46;;;;;;;;;;;;;;;27.51;52.34;96617.69;4207954;28;5609;-71
2023/06/20 10:55:51;;;;;;;;;;;;;;;27.52;52.30;96619.28;4218898;28;5679;-71
2023/06/20 10:57:55;;;;;;;;;;;;;;;27.51;52.35;96618.50;4219183;28;5728;-70
2023/06/20 10:59:58;;;;;;;;;;;;;;;27.51;52.43;96612.25;4218359;28;5774;-70
2023/06/20 11:02:01;;;;;;;;;;;;;;;27.52;52.28;96611.16;4215538;28;5805;-71
2023/06/20 11:04:07;;;;;;;;;;;;;;;27.52;52.31;96605.72;4213716;28;5770;-71
2023/06/20 11:06:15;;;;;;;;;;;;;;;27.52;52.31;96600.28;4216506;28;5624;-71
2023/06/20 11:08:22;;;;;;;;;;;;;;;27.54;52.23;96606.25;4219017;28;5620;-71
2023/06/20 11:10:28;;;;;;;;;;;;;;;27.54;52.19;96596.19;4215993;28;5903;-72
2023/06/20 11:12:33;;;;;;;;;;;;;;;27.52;52.12;96594.84;4217998;28;5612;-71
2023/06/20 11:14:36;;;;;;;;;;;;;;;27.51;51.95;96594.06;4217993;28;5748;-71
2023/06/20 11:16:39;;;;;;;;;;;;;;;27.53;52.39;96585.63;4210831;28;5683;-71
2023/06/20 11:18:42;;;;;;;;;;;;;;;27.55;52.08;96588.84;4216246;28;5740;-71
2023/06/20 11:20:45;;;;;;;;;;;;;;;27.55;51.98;96575.25;4218848;28;5671;-72
2023/06/20 11:22:49;;;;;;;;;;;;;;;27.57;52.15;96573.03;4217032;28;5633;-72
2023/06/20 11:24:52;;;;;;;;;;;;;;;27.58;52.13;96574.63;4211177;28;5678;-71
2023/06/20 11:26:56;;;;;;;;;;;;;;;27.59;52.12;96562.66;4218708;28;5826;-71
2023/06/20 11:29:01;;;;;;;;;;;;;;;27.61;52.08;96570.50;4217799;28;6321;-71
2023/06/20 11:31:16;;;;;;;;;;;;;;;27.61;51.91;96560.44;4218595;28;5600;-71
2023/06/20 11:33:20;;;;;;;;;;;;;;;27.63;51.98;96560.13;4217545;28;5620;-71
2023/06/20 11:35:23;;;;;;;;;;;;;;;27.65;51.91;96563.38;4218721;28;5624;-71
2023/06/20 11:37:26;;;;;;;;;;;;;;;27.68;51.82;96554.63;4217481;28;5707;-71
2023/06/20 11:39:30;;;;;;;;;;;;;;;27.71;51.98;96554.78;4217753;28;5636;-71
2023/06/20 11:41:34;;;;;;;;;;;;;;;27.75;51.85;96546.84;4217609;28;5609;-71
2023/06/20 11:43:39;;;;;;;;;;;;;;;27.77;51.81;96559.00;4218333;28;5628;-71
2023/06/20 11:45:43;;;;;;;;;;;;;;;27.78;51.67;96554.38;4217511;28;5736;-71
2023/06/20 11:47:46;;;;;;;;;;;;;;;27.80;51.59;96557.59;4217807;28;5841;-71
2023/06/20 11:49:52;;;;;;;;;;;;;;;27.82;51.71;96550.72;4218645;28;5621;-71
2023/06/20 11:51:55;;;;;;;;;;;;;;;27.83;51.76;96552.31;4218526;28;5854;-71
2023/06/20 11:54:02;;;;;;;;;;;;;;;27.82;51.70;96548.00;4218271;28;5608;-71
2023/06/20 11:56:08;;;;;;;;;;;;;;;27.83;51.76;96549.59;4217468;28;5668;-71
2023/06/20 11:58:14;;;;;;;;;;;;;;;27.84;51.70;96551.22;4217099;28;5596;-71
2023/06/20 12:00:24;;;;;;;;;;;;;;;27.83;51.68;96546.09;4218097;28;5636;-70
2023/06/20 12:02:29;;;;;;;;;;;;;;;27.84;51.50;96548.50;4217430;28;5629;-71
2023/06/20 12:04:37;;;;;;;;;;;;;;;27.83;51.46;96546.88;4218224;28;5608;-71
2023/06/20 12:06:42;;;;;;;;;;;;;;;27.83;51.50;96552.31;4216899;28;6303;-70
2023/06/20 12:08:53;;;;;;;;;;;;;;;27.83;51.40;96546.09;4218247;28;5655;-71
2023/06/20 12:11:01;;;;;;;;;;;;;;;27.84;51.34;96548.50;4217253;28;5635;-70
2023/06/20 12:13:05;;;;;;;;;;;;;;;27.85;51.31;96541.16;4217790;28;5628;-71
2023/06/20 12:15:11;;;;;;;;;;;;;;;27.85;51.25;96552.81;4216955;28;5620;-70
2023/06/20 12:17:15;;;;;;;;;;;;;;;27.87;51.29;96543.56;4217008;28;5612;-70
2023/06/20 12:19:20;;;;;;;;;;;;;;;27.88;51.26;96542.47;4212357;28;5620;-71
2023/06/20 12:21:23;;;;;;;;;;;;;;;27.87;51.20;96538.16;4218077;28;5616;-71
2023/06/20 12:23:26;;;;;;;;;;;;;;;27.86;51.21;96545.47;4216928;28;5403;-71
2023/06/20 12:25:29;;;;;;;;;;;;;;;27.87;51.23;96538.16;4198212;28;5716;-71
2023/06/20 12:27:32;;;;;;;;;;;;;;;27.88;51.34;96542.47;4209475;28;5703;-71
2023/06/20 12:29:35;;;;;;;;;;;;;;;27.87;51.20;96540.84;4214052;28;5737;-71
2023/06/20 12:31:39;;;;;;;;;;;;;;;27.88;51.05;96542.47;4210394;28;5643;-70
2023/06/20 12:33:42;;;;;;;;;;;;;;;27.91;50.98;96541.84;4213901;28;5811;-71
2023/06/20 12:35:47;;;;;;;;;;;;;;;27.92;50.93;96538.00;4214900;28;5762;-71
2023/06/20 12:37:50;;;;;;;;;;;;;;;27.92;50.85;96529.84;4217788;28;5942;-71
2023/06/20 12:39:53;;;;;;;;;;;;;;;27.92;51.00;96529.84;4216651;28;5628;-70
2023/06/20 12:41:56;;;;;;;;;;;;;;;27.92;50.81;96524.41;4217052;28;5639;-71
2023/06/20 12:43:59;;;;;;;;;;;;;;;27.91;50.87;96528.25;4216205;28;5617;-70
2023/06/20 12:46:03;;;;;;;;;;;;;;;27.90;50.71;96530.16;4216621;28;5600;-70
2023/06/20 12:48:06;;;;;;;;;;;;;;;27.91;50.62;96520.91;4217476;28;5631;-70
2023/06/20 12:50:10;;;;;;;;;;;;;;;27.89;50.63;96520.41;4216502;28;5640;-70
2023/06/20 12:52:14;;;;;;;;;;;;;;;27.93;50.66;96517.88;4215612;28;5735;-70
2023/06/20 12:54:18;;;;;;;;;;;;;;;27.94;50.51;96522.19;4214925;28;5621;-70
2023/06/20 12:56:22;;;;;;;;;;;;;;;27.95;50.56;96515.63;4217257;28;5708;-71
2023/06/20 12:58:26;;;;;;;;;;;;;;;27.95;50.37;96512.94;4216019;28;5702;-71
2023/06/20 13:00:29;;;;;;;;;;;;;;;27.95;50.44;96504.78;4217245;28;5616;-70
2023/06/20 13:02:35;;;;;;;;;;;;;;;27.93;50.22;96499.66;4215884;28;5612;-71
2023/06/20 13:04:38;;;;;;;;;;;;;;;27.95;50.28;96510.22;4212769;28;5623;-70
2023/06/20 13:06:41;;;;;;;;;;;;;;;27.94;50.29;96506.69;4214954;28;5612;-71
2023/06/20 13:08:46;;;;;;;;;;;;;;;27.95;50.24;96513.72;4212566;28;5830;-70
2023/06/20 13:10:49;;;;;;;;;;;;;;;27.97;50.25;96513.41;4210131;28;5831;-71
2023/06/20 13:12:57;;;;;;;;;;;;;;;27.97;50.00;96508.78;4213193;28;5732;-71
2023/06/20 13:15:00;;;;;;;;;;;;;;;27.98;49.90;96517.75;4213749;28;5770;-71
2023/06/20 13:17:10;;;;;;;;;;;;;;;28.00;49.86;96502.75;4215300;28;5608;-71
2023/06/20 13:19:15;;;;;;;;;;;;;;;28.01;49.78;96493.47;4211838;28;5612;-71
2023/06/20 13:21:18;;;;;;;;;;;;;;;28.01;49.76;96501.63;4213212;28;5702;-71
2023/06/20 13:23:21;;;;;;;;;;;;;;;28.02;49.78;96494.28;4213763;28;5728;-71
2023/06/20 13:25:25;;;;;;;;;;;;;;;28.03;49.86;96512.97;4214093;28;5608;-71
2023/06/20 13:27:28;;;;;;;;;;;;;;;28.03;49.79;96507.53;4214779;28;5770;-71
2023/06/20 13:29:31;;;;;;;;;;;;;;;28.04;49.72;96511.06;4214282;28;5101;-71
2023/06/20 13:31:34;;;;;;;;;;;;;;;28.03;49.63;96517.59;4206887;28;5624;-71
2023/06/20 13:33:37;;;;;;;;;;;;;;;28.06;49.59;96522.41;4205621;28;5884;-70
2023/06/20 13:35:40;;;;;;;;;;;;;;;28.08;49.53;96526.41;4216117;28;5616;-70
2023/06/20 13:37:44;;;;;;;;;;;;;;;28.08;49.69;96526.41;4218039;28;5623;-70
2023/06/20 13:39:47;;;;;;;;;;;;;;;28.10;49.53;96531.56;4217172;28;7659;-70
2023/06/20 13:41:52;;;;;;;;;;;;;;;28.11;49.50;96530.44;4214607;28;5612;-70
2023/06/20 13:43:55;;;;;;;;;;;;;;;28.11;49.45;96533.16;4217354;28;5782;-70
2023/06/20 13:45:58;;;;;;;;;;;;;;;28.10;49.42;96526.94;4218280;28;5616;-70
2023/06/20 13:48:00;;;;;;;;;;;;;;;28.12;48.94;96526.63;4218216;28;5887;-70
2023/06/20 13:50:04;;;;;;;;;;;;;;;28.11;49.38;96535.88;4218230;28;5719;-71
2023/06/20 13:52:08;;;;;;;;;;;;;;;28.11;49.12;96539.41;4218538;28;5675;-70
2023/06/20 13:54:11;;;;;;;;;;;;;;;28.11;49.23;96544.84;4218573;28;7671;-70
2023/06/20 13:56:15;;;;;;;;;;;;;;;28.12;49.29;96538.28;4218784;28;5605;-71
2023/06/20 13:58:19;;;;;;;;;;;;;;;28.12;49.17;96526.63;4218377;28;5743;-70
2023/06/20 14:00:22;;;;;;;;;;;;;;;28.14;49.08;96530.63;4217652;28;5702;-72
2023/06/20 14:02:25;;;;;;;;;;;;;;;28.15;48.99;96531.41;4218456;28;5740;-71
2023/06/20 14:04:29;;;;;;;;;;;;;;;28.16;49.09;96527.59;4218230;28;5655;-70
2023/06/20 14:06:33;;;;;;;;;;;;;;;28.17;49.06;96525.66;4218367;28;5699;-71
2023/06/20 14:08:36;;;;;;;;;;;;;;;28.21;48.95;96546.50;4217277;28;5922;-71
2023/06/20 14:10:40;;;;;;;;;;;;;;;28.24;49.17;96534.19;4210470;28;5612;-71
2023/06/20 14:12:43;;;;;;;;;;;;;;;28.28;48.93;96548.78;4217482;28;5719;-71
2023/06/20 14:14:47;;;;;;;;;;;;;;;28.27;49.12;96539.81;4216844;28;5719;-71
2023/06/20 14:16:50;;;;;;;;;;;;;;;28.32;49.13;96539.69;4216473;28;5706;-71
2023/06/20 14:18:53;;;;;;;;;;;;;;;28.30;49.15;96538.38;4215278;28;5838;-71
2023/06/20 14:20:59;;;;;;;;;;;;;;;28.32;49.06;96531.53;4217957;28;5632;-71
2023/06/20 14:23:03;;;;;;;;;;;;;;;28.29;49.17;96532.16;4218664;28;5628;-70
2023/06/20 14:25:07;;;;;;;;;;;;;;;28.29;49.12;96548.47;4215916;28;5647;-71
2023/06/20 14:27:10;;;;;;;;;;;;;;;28.31;49.27;96543.50;4216807;28;5818;-70
2023/06/20 14:29:14;;;;;;;;;;;;;;;28.33;49.03;96549.44;4214925;28;5735;-71
2023/06/20 14:31:18;;;;;;;;;;;;;;;28.36;49.38;96540.66;4217170;28;5811;-71
2023/06/20 14:33:21;;;;;;;;;;;;;;;28.39;49.34;96541.94;4212240;28;5726;-70
2023/06/20 14:35:24;;;;;;;;;;;;;;;28.40;49.32;96541.63;4214252;28;5695;-70
2023/06/20 14:37:27;;;;;;;;;;;;;;;28.39;49.22;96545.47;4218382;28;5719;-71
2023/06/20 14:39:30;;;;;;;;;;;;;;;28.38;49.04;96557.47;4209398;28;5619;-71
2023/06/20 14:41:34;;;;;;;;;;;;;;;28.38;49.15;96556.66;4216306;28;5715;-70
2023/06/20 14:43:36;;;;;;;;;;;;;;;28.36;49.22;96554.25;4217770;28;5807;-70
2023/06/20 14:45:41;;;;;;;;;;;;;;;28.35;49.25;96558.09;4213248;28;5749;-70
2023/06/20 14:47:45;;;;;;;;;;;;;;;28.34;49.30;96561.94;4217817;28;5703;-70
2023/06/20 14:49:49;;;;;;;;;;;;;;;28.36;49.44;96561.59;4213675;28;5667;-70
2023/06/20 14:51:51;;;;;;;;;;;;;;;28.37;49.22;96563.22;4217431;28;6358;-70
2023/06/20 14:53:54;;;;;;;;;;;;;;;28.37;49.11;96553.13;4218592;28;5746;-70
2023/06/20 14:55:57;;;;;;;;;;;;;;;28.38;49.01;96557.47;4217002;28;5620;-70
2023/06/20 14:58:00;;;;;;;;;;;;;;;28.38;49.11;96559.38;4217453;28;5616;-69
2023/06/20 15:00:05;;;;;;;;;;;;;;;28.39;48.90;96558.25;4211744;28;5691;-69
2023/06/20 15:02:09;;;;;;;;;;;;;;;28.38;48.98;96546.59;4210929;28;5703;-70
2023/06/20 15:04:14;;;;;;;;;;;;;;;28.38;48.96;96540.34;4216097;28;5707;-70
2023/06/20 15:06:17;;;;;;;;;;;;;;;28.38;49.07;96534.91;4212795;28;5742;-70
2023/06/20 15:08:20;;;;;;;;;;;;;;;28.35;48.92;96528.19;4214674;28;5108;-70
2023/06/20 15:10:23;;;;;;;;;;;;;;;28.35;48.55;96524.66;4212113;28;5862;-70
2023/06/20 15:12:26;;;;;;;;;;;;;;;28.36;48.33;96507.25;4213008;28;5746;-71
2023/06/20 15:14:30;;;;;;;;;;;;;;;28.37;47.84;96497.97;4210529;28;5687;-70
2023/06/20 15:16:33;;;;;;;;;;;;;;;28.40;47.92;96495.41;4208189;28;5771;-71
2023/06/20 15:18:38;;;;;;;;;;;;;;;28.44;47.76;96483.94;4212361;28;5981;-70
2023/06/20 15:20:43;;;;;;;;;;;;;;;28.47;47.44;96472.41;4208910;28;5731;-70
2023/06/20 15:22:46;;;;;;;;;;;;;;;28.51;46.96;96452.44;4212708;28;6350;-70
2023/06/20 15:24:49;;;;;;;;;;;;;;;28.55;46.51;96444.44;4214280;28;5703;-70
2023/06/20 15:26:55;;;;;;;;;;;;;;;28.57;46.28;96450.38;4212722;28;5711;-70
2023/06/20 15:28:58;;;;;;;;;;;;;;;28.59;46.19;96464.44;4213798;28;5612;-70
2023/06/20 15:31:02;;;;;;;;;;;;;;;28.60;45.86;96466.03;4213961;28;5604;-70
2023/06/20 15:33:05;;;;;;;;;;;;;;;28.62;45.63;96480.13;4213413;28;5696;-70
2023/06/20 15:35:11;;;;;;;;;;;;;;;28.60;45.70;96472.28;4214979;28;8272;-70
2023/06/20 15:37:17;;;;;;;;;;;;;;;28.59;45.66;96478.03;4210875;28;5789;-70
2023/06/20 15:39:20;;;;;;;;;;;;;;;28.58;45.66;96473.72;4216270;28;5679;-70
2023/06/20 15:41:23;;;;;;;;;;;;;;;28.56;45.71;96462.38;4216114;28;5739;-70
2023/06/20 15:43:26;;;;;;;;;;;;;;;28.58;45.58;96457.41;4213845;28;5723;-70
2023/06/20 15:45:29;;;;;;;;;;;;;;;28.61;45.35;96456.75;4220015;28;6427;-70
2023/06/20 15:47:36;;;;;;;;;;;;;;;28.63;45.11;96452.59;4215889;28;5671;-71
2023/06/20 15:49:41;;;;;;;;;;;;;;;28.64;45.20;96456.13;4215517;28;5911;-70
2023/06/20 15:51:44;;;;;;;;;;;;;;;28.63;45.18;96454.53;4215521;28;5826;-70
2023/06/20 15:53:48;;;;;;;;;;;;;;;28.61;45.20;96454.84;4209021;28;5648;-70
2023/06/20 15:55:51;;;;;;;;;;;;;;;28.61;45.24;96437.72;4213191;28;5612;-70
2023/06/20 15:57:54;;;;;;;;;;;;;;;28.60;45.21;96441.56;4207748;28;5947;-70
2023/06/20 15:59:57;;;;;;;;;;;;;;;28.59;44.95;96442.69;4212776;28;5710;-71
2023/06/20 16:02:00;;;;;;;;;;;;;;;28.58;45.22;96449.25;4212953;28;5846;-71
2023/06/20 16:04:03;;;;;;;;;;;;;;;28.57;44.94;96451.16;4212807;28;5707;-70
2023/06/20 16:06:06;;;;;;;;;;;;;;;28.57;45.09;96444.94;4217792;28;5616;-71
2023/06/20 16:08:09;;;;;;;;;;;;;;;28.56;44.95;96444.13;4217152;28;6350;-71
2023/06/20 16:10:14;;;;;;;;;;;;;;;28.56;44.92;96432.47;4217747;28;7383;-71
2023/06/20 16:12:17;;;;;;;;;;;;;;;28.55;44.90;96431.66;4217983;28;5645;-71
2023/06/20 16:14:20;;;;;;;;;;;;;;;28.56;45.00;96437.91;4217109;28;5707;-70
2023/06/20 16:16:23;;;;;;;;;;;;;;;28.55;44.97;96442.53;4217195;28;5604;-71
2023/06/20 16:18:26;;;;;;;;;;;;;;;28.57;44.83;96445.72;4217831;28;6290;-71
2023/06/20 16:20:29;;;;;;;;;;;;;;;28.57;44.70;96444.94;4215269;28;5608;-70